sensor_id;sensor_type;location;lat;lon;timestamp;pressure;altitude;pressure_sealevel;temperature;humidity
28344;BME280;15597;50.914;6.638;2024-03-22T00:00:05;101451.41;;;16.65;50.61
28344;BME280;15597;50.914;6.638;2024-03-22T00:02:38;101449.66;;;16.64;50.52
28344;BME280;15597;50.914;6.638;2024-03-22T00:05:04;101446.13;;;16.65;50.64
28344;BME280;15597;50.914;6.638;2024-03-22T00:07:29;101447.03;;;16.64;50.64
28344;BME280;15597;50.914;6.638;2024-03-22T00:09:55;101447.03;;;16.64;50.36
28344;BME280;15597;50.914;6.638;2024-03-22T00:12:21;101447.03;;;16.64;50.57
28344;BME280;15597;50.914;6.638;2024-03-22T00:14:47;101448.84;;;16.62;50.54
28344;BME280;15597;50.914;6.638;2024-03-22T00:17:13;101445.41;;;16.60;50.64
28344;BME280;15597;50.914;6.638;2024-03-22T00:19:38;101443.69;;;16.59;50.80
28344;BME280;15597;50.914;6.638;2024-03-22T00:22:04;101443.78;;;16.56;50.83
28344;BME280;15597;50.914;6.638;2024-03-22T00:24:30;101443.78;;;16.56;50.89
28344;BME280;15597;50.914;6.638;2024-03-22T00:26:55;101447.34;;;16.55;50.80
28344;BME280;15597;50.914;6.638;2024-03-22T00:29:21;101446.38;;;16.57;50.66
28344;BME280;15597;50.914;6.638;2024-03-22T00:31:46;101434.94;;;16.57;50.69
28344;BME280;15597;50.914;6.638;2024-03-22T00:34:12;101436.66;;;16.58;50.75
28344;BME280;15597;50.914;6.638;2024-03-22T00:36:37;101433.09;;;16.59;50.64
28344;BME280;15597;50.914;6.638;2024-03-22T00:39:03;101433.00;;;16.62;50.38
28344;BME280;15597;50.914;6.638;2024-03-22T00:41:29;101432.09;;;16.63;50.52
28344;BME280;15597;50.914;6.638;2024-03-22T00:43:54;101426.78;;;16.64;50.53
28344;BME280;15597;50.914;6.638;2024-03-22T00:46:20;101421.53;;;16.63;50.47
28344;BME280;15597;50.914;6.638;2024-03-22T00:48:46;101419.75;;;16.63;50.38
28344;BME280;15597;50.914;6.638;2024-03-22T00:51:11;101419.78;;;16.62;50.40
28344;BME280;15597;50.914;6.638;2024-03-22T00:53:37;101413.69;;;16.60;50.62
28344;BME280;15597;50.914;6.638;2024-03-22T00:56:03;101397.84;;;16.60;50.56
28344;BME280;15597;50.914;6.638;2024-03-22T00:58:29;101396.22;;;16.56;50.60
28344;BME280;15597;50.914;6.638;2024-03-22T01:00:55;101387.50;;;16.54;50.55
28344;BME280;15597;50.914;6.638;2024-03-22T01:03:21;101386.63;;;16.53;50.68
28344;BME280;15597;50.914;6.638;2024-03-22T01:05:47;101384.91;;;16.52;50.64
28344;BME280;15597;50.914;6.638;2024-03-22T01:08:13;101387.59;;;16.50;50.55
28344;BME280;15597;50.914;6.638;2024-03-22T01:10:38;101383.22;;;16.49;50.63
28344;BME280;15597;50.914;6.638;2024-03-22T01:13:04;101384.13;;;16.48;50.61
28344;BME280;15597;50.914;6.638;2024-03-22T01:15:30;101380.59;;;16.49;50.80
28344;BME280;15597;50.914;6.638;2024-03-22T01:17:55;101367.44;;;16.48;50.53
28344;BME280;15597;50.914;6.638;2024-03-22T01:20:21;101372.66;;;16.49;50.75
28344;BME280;15597;50.914;6.638;2024-03-22T01:22:46;101363.00;;;16.48;50.69
28344;BME280;15597;50.914;6.638;2024-03-22T01:25:12;101368.41;;;16.45;50.64
28344;BME280;15597;50.914;6.638;2024-03-22T01:27:38;101366.66;;;16.44;50.72
28344;BME280;15597;50.914;6.638;2024-03-22T01:30:04;101361.50;;;16.41;50.84
28344;BME280;15597;50.914;6.638;2024-03-22T01:32:30;101358.94;;;16.38;50.87
28344;BME280;15597;50.914;6.638;2024-03-22T01:34:57;101360.78;;;16.36;50.76
28344;BME280;15597;50.914;6.638;2024-03-22T01:37:23;101361.69;;;16.35;50.98
28344;BME280;15597;50.914;6.638;2024-03-22T01:39:48;101352.91;;;16.34;50.77
28344;BME280;15597;50.914;6.638;2024-03-22T01:42:14;101355.50;;;16.36;50.98
28344;BME280;15597;50.914;6.638;2024-03-22T01:44:40;101354.59;;;16.37;50.83
28344;BME280;15597;50.914;6.638;2024-03-22T01:47:06;101343.09;;;16.38;50.89
28344;BME280;15597;50.914;6.638;2024-03-22T01:49:32;101336.91;;;16.39;50.86
28344;BME280;15597;50.914;6.638;2024-03-22T01:51:58;101341.28;;;16.40;50.88
28344;BME280;15597;50.914;6.638;2024-03-22T01:54:23;101334.19;;;16.41;50.67
28344;BME280;15597;50.914;6.638;2024-03-22T01:56:49;101323.63;;;16.41;50.93
28344;BME280;15597;50.914;6.638;2024-03-22T01:59:15;101319.25;;;16.40;50.82
28344;BME280;15597;50.914;6.638;2024-03-22T02:01:41;101317.59;;;16.37;50.82
28344;BME280;15597;50.914;6.638;2024-03-22T02:04:07;101320.28;;;16.35;50.91
28344;BME280;15597;50.914;6.638;2024-03-22T02:06:33;101314.16;;;16.35;50.90
28344;BME280;15597;50.914;6.638;2024-03-22T02:08:59;101312.44;;;16.34;50.95
28344;BME280;15597;50.914;6.638;2024-03-22T02:11:26;101314.16;;;16.35;50.99
28344;BME280;15597;50.914;6.638;2024-03-22T02:13:51;101305.31;;;16.36;50.89
28344;BME280;15597;50.914;6.638;2024-03-22T02:16:17;101310.50;;;16.39;50.74
28344;BME280;15597;50.914;6.638;2024-03-22T02:18:42;101301.66;;;16.40;50.75
28344;BME280;15597;50.914;6.638;2024-03-22T02:21:09;101299.94;;;16.39;50.97
28344;BME280;15597;50.914;6.638;2024-03-22T02:23:37;101294.75;;;16.36;50.81
28344;BME280;15597;50.914;6.638;2024-03-22T02:26:03;101293.88;;;16.35;50.92
28344;BME280;15597;50.914;6.638;2024-03-22T02:28:30;101292.13;;;16.36;50.96
28344;BME280;15597;50.914;6.638;2024-03-22T02:30:56;101285.94;;;16.35;50.94
28344;BME280;15597;50.914;6.638;2024-03-22T02:33:21;101282.47;;;16.35;50.77
28344;BME280;15597;50.914;6.638;2024-03-22T02:35:47;101279.03;;;16.33;50.90
28344;BME280;15597;50.914;6.638;2024-03-22T02:38:13;101265.81;;;16.33;50.84
28344;BME280;15597;50.914;6.638;2024-03-22T02:40:39;101267.66;;;16.31;51.07
28344;BME280;15597;50.914;6.638;2024-03-22T02:43:04;101265.00;;;16.31;50.92
28344;BME280;15597;50.914;6.638;2024-03-22T02:45:31;101262.41;;;16.29;50.99
28344;BME280;15597;50.914;6.638;2024-03-22T02:47:57;101261.56;;;16.29;51.09
28344;BME280;15597;50.914;6.638;2024-03-22T02:50:23;101261.56;;;16.29;50.97
28344;BME280;15597;50.914;6.638;2024-03-22T02:52:49;101263.28;;;16.30;51.10
28344;BME280;15597;50.914;6.638;2024-03-22T02:55:14;101273.84;;;16.30;50.99
28344;BME280;15597;50.914;6.638;2024-03-22T02:57:40;101255.41;;;16.28;50.99
28344;BME280;15597;50.914;6.638;2024-03-22T03:00:06;101251.09;;;16.26;51.12
28344;BME280;15597;50.914;6.638;2024-03-22T03:02:32;101252.94;;;16.24;50.89
28344;BME280;15597;50.914;6.638;2024-03-22T03:04:58;101257.41;;;16.21;51.10
28344;BME280;15597;50.914;6.638;2024-03-22T03:07:24;101245.97;;;16.21;51.25
28344;BME280;15597;50.914;6.638;2024-03-22T03:09:50;101248.69;;;16.19;51.28
28344;BME280;15597;50.914;6.638;2024-03-22T03:12:15;101246.03;;;16.19;51.14
28344;BME280;15597;50.914;6.638;2024-03-22T03:14:41;101251.31;;;16.19;51.10
28344;BME280;15597;50.914;6.638;2024-03-22T03:17:07;101241.59;;;16.20;51.21
28344;BME280;15597;50.914;6.638;2024-03-22T03:19:33;101244.19;;;16.21;51.25
28344;BME280;15597;50.914;6.638;2024-03-22T03:21:59;101238.00;;;16.23;51.15
28344;BME280;15597;50.914;6.638;2024-03-22T03:24:25;101245.81;;;16.26;51.20
28344;BME280;15597;50.914;6.638;2024-03-22T03:26:50;101240.53;;;16.26;51.11
28344;BME280;15597;50.914;6.638;2024-03-22T03:29:16;101236.97;;;16.27;51.16
28344;BME280;15597;50.914;6.638;2024-03-22T03:31:42;101232.53;;;16.27;51.04
28344;BME280;15597;50.914;6.638;2024-03-22T03:34:07;101229.06;;;16.27;51.16
28344;BME280;15597;50.914;6.638;2024-03-22T03:36:33;101229.06;;;16.27;51.19
28344;BME280;15597;50.914;6.638;2024-03-22T03:38:58;101220.25;;;16.26;51.01
28344;BME280;15597;50.914;6.638;2024-03-22T03:41:24;101223.78;;;16.27;51.16
28344;BME280;15597;50.914;6.638;2024-03-22T03:43:49;101221.13;;;16.27;51.01
28344;BME280;15597;50.914;6.638;2024-03-22T03:46:15;101215.84;;;16.27;50.96
28344;BME280;15597;50.914;6.638;2024-03-22T03:48:40;101207.13;;;16.25;51.17
28344;BME280;15597;50.914;6.638;2024-03-22T03:51:06;101200.13;;;16.24;51.03
28344;BME280;15597;50.914;6.638;2024-03-22T03:53:32;101203.78;;;16.19;51.23
28344;BME280;15597;50.914;6.638;2024-03-22T03:55:57;101199.44;;;16.18;51.29
28344;BME280;15597;50.914;6.638;2024-03-22T03:58:23;101206.47;;;16.18;51.11
28344;BME280;15597;50.914;6.638;2024-03-22T04:00:48;101200.34;;;16.17;51.16
28344;BME280;15597;50.914;6.638;2024-03-22T04:03:14;101196.91;;;16.15;51.07
28344;BME280;15597;50.914;6.638;2024-03-22T04:05:40;101196.94;;;16.14;51.31
28344;BME280;15597;50.914;6.638;2024-03-22T04:08:05;101197.00;;;16.12;51.33
28344;BME280;15597;50.914;6.638;2024-03-22T04:10:31;101194.41;;;16.11;51.34
28344;BME280;15597;50.914;6.638;2024-03-22T04:12:57;101195.28;;;16.11;51.19
28344;BME280;15597;50.914;6.638;2024-03-22T04:15:23;101189.19;;;16.09;51.21
28344;BME280;15597;50.914;6.638;2024-03-22T04:17:48;101183.03;;;16.09;51.31
28344;BME280;15597;50.914;6.638;2024-03-22T04:20:14;101186.59;;;16.08;51.30
28344;BME280;15597;50.914;6.638;2024-03-22T04:22:40;101186.66;;;16.06;51.40
28344;BME280;15597;50.914;6.638;2024-03-22T04:25:06;101178.75;;;16.06;51.41
28344;BME280;15597;50.914;6.638;2024-03-22T04:27:31;101184.88;;;16.06;51.30
28344;BME280;15597;50.914;6.638;2024-03-22T04:29:57;101173.38;;;16.08;51.36
28344;BME280;15597;50.914;6.638;2024-03-22T04:32:23;101170.81;;;16.06;51.33
28344;BME280;15597;50.914;6.638;2024-03-22T04:34:49;101162.09;;;16.04;51.37
28344;BME280;15597;50.914;6.638;2024-03-22T04:37:14;101159.50;;;16.02;51.43
28344;BME280;15597;50.914;6.638;2024-03-22T04:39:40;101155.19;;;16.00;51.66
28344;BME280;15597;50.914;6.638;2024-03-22T04:42:06;101153.47;;;15.99;51.56
28344;BME280;15597;50.914;6.638;2024-03-22T04:44:32;101151.78;;;15.96;51.59
28344;BME280;15597;50.914;6.638;2024-03-22T04:46:57;101145.66;;;15.96;51.67
28344;BME280;15597;50.914;6.638;2024-03-22T04:49:23;101147.53;;;15.92;51.87
28344;BME280;15597;50.914;6.638;2024-03-22T04:51:49;101143.22;;;15.89;51.90
28344;BME280;15597;50.914;6.638;2024-03-22T04:54:14;101137.16;;;15.86;51.90
28344;BME280;15597;50.914;6.638;2024-03-22T04:56:40;101130.19;;;15.83;52.19
28344;BME280;15597;50.914;6.638;2024-03-22T04:59:05;101126.75;;;15.81;52.23
28344;BME280;15597;50.914;6.638;2024-03-22T05:01:31;101127.66;;;15.80;52.33
28344;BME280;15597;50.914;6.638;2024-03-22T05:03:57;101127.66;;;15.80;52.38
28344;BME280;15597;50.914;6.638;2024-03-22T05:06:23;101129.41;;;15.81;52.27
28344;BME280;15597;50.914;6.638;2024-03-22T05:08:48;101122.41;;;15.80;52.58
28344;BME280;15597;50.914;6.638;2024-03-22T05:11:14;101125.00;;;15.82;52.30
28344;BME280;15597;50.914;6.638;2024-03-22T05:13:39;101117.00;;;15.83;52.63
28344;BME280;15597;50.914;6.638;2024-03-22T05:16:06;101124.00;;;15.84;52.29
28344;BME280;15597;50.914;6.638;2024-03-22T05:18:32;101127.53;;;15.85;52.27
28344;BME280;15597;50.914;6.638;2024-03-22T05:20:57;101125.72;;;15.85;52.45
28344;BME280;15597;50.914;6.638;2024-03-22T05:23:23;101121.44;;;15.83;52.52
28344;BME280;15597;50.914;6.638;2024-03-22T05:25:48;101119.72;;;15.82;52.35
28344;BME280;15597;50.914;6.638;2024-03-22T05:28:14;101121.47;;;15.81;52.35
28344;BME280;15597;50.914;6.638;2024-03-22T05:30:40;101118.84;;;15.81;52.59
28344;BME280;15597;50.914;6.638;2024-03-22T05:33:05;101118.84;;;15.81;52.59
28344;BME280;15597;50.914;6.638;2024-03-22T05:35:31;101120.66;;;15.79;52.70
28344;BME280;15597;50.914;6.638;2024-03-22T05:37:57;101117.13;;;15.80;52.77
28344;BME280;15597;50.914;6.638;2024-03-22T05:40:22;101124.13;;;15.81;52.79
28344;BME280;15597;50.914;6.638;2024-03-22T05:42:48;101116.28;;;15.80;52.85
28344;BME280;15597;50.914;6.638;2024-03-22T05:45:14;101117.13;;;15.80;52.95
28344;BME280;15597;50.914;6.638;2024-03-22T05:47:39;101113.63;;;15.80;52.80
28344;BME280;15597;50.914;6.638;2024-03-22T05:50:05;101110.13;;;15.79;52.85
28344;BME280;15597;50.914;6.638;2024-03-22T05:52:34;101107.47;;;15.79;52.98
28344;BME280;15597;50.914;6.638;2024-03-22T05:55:00;101104.00;;;15.78;52.50
28344;BME280;15597;50.914;6.638;2024-03-22T05:57:26;101106.56;;;15.80;52.81
28344;BME280;15597;50.914;6.638;2024-03-22T05:59:52;101099.47;;;15.82;53.19
28344;BME280;15597;50.914;6.638;2024-03-22T06:02:18;101106.44;;;15.83;52.78
28344;BME280;15597;50.914;6.638;2024-03-22T06:04:44;101108.13;;;15.86;52.93
28344;BME280;15597;50.914;6.638;2024-03-22T06:07:11;101097.53;;;15.87;52.72
28344;BME280;15597;50.914;6.638;2024-03-22T06:09:39;101099.28;;;15.88;52.93
28344;BME280;15597;50.914;6.638;2024-03-22T06:12:15;101094.94;;;15.86;53.18
28344;BME280;15597;50.914;6.638;2024-03-22T06:14:41;101094.00;;;15.88;52.91
28344;BME280;15597;50.914;6.638;2024-03-22T06:17:08;101087.72;;;15.93;53.00
28344;BME280;15597;50.914;6.638;2024-03-22T06:19:35;101092.09;;;15.94;53.10
28344;BME280;15597;50.914;6.638;2024-03-22T06:22:00;101089.44;;;15.94;53.17
28344;BME280;15597;50.914;6.638;2024-03-22T06:24:26;101093.00;;;15.93;53.08
28344;BME280;15597;50.914;6.638;2024-03-22T06:26:52;101100.91;;;15.93;53.09
28344;BME280;15597;50.914;6.638;2024-03-22T06:29:17;101088.63;;;15.91;53.13
28344;BME280;15597;50.914;6.638;2024-03-22T06:31:43;101088.63;;;15.91;53.23
28344;BME280;15597;50.914;6.638;2024-03-22T06:34:09;101078.91;;;15.92;53.23
28344;BME280;15597;50.914;6.638;2024-03-22T06:36:34;101080.66;;;15.93;53.20
28344;BME280;15597;50.914;6.638;2024-03-22T06:39:00;101081.53;;;15.94;53.28
28344;BME280;15597;50.914;6.638;2024-03-22T06:41:27;101073.53;;;15.95;53.20
28344;BME280;15597;50.914;6.638;2024-03-22T06:43:53;101083.13;;;15.98;53.25
28344;BME280;15597;50.914;6.638;2024-03-22T06:46:18;101083.03;;;16.01;53.31
28344;BME280;15597;50.914;6.638;2024-03-22T06:48:45;101082.91;;;16.04;53.06
28344;BME280;15597;50.914;6.638;2024-03-22T06:51:11;101083.72;;;16.06;53.40
28344;BME280;15597;50.914;6.638;2024-03-22T06:53:37;101073.09;;;16.08;53.29
28344;BME280;15597;50.914;6.638;2024-03-22T06:56:04;101071.25;;;16.10;53.21
28344;BME280;15597;50.914;6.638;2024-03-22T06:58:29;101080.97;;;16.09;53.27
28344;BME280;15597;50.914;6.638;2024-03-22T07:00:55;101071.31;;;16.08;53.42
28344;BME280;15597;50.914;6.638;2024-03-22T07:03:21;101073.97;;;16.08;53.15
28344;BME280;15597;50.914;6.638;2024-03-22T07:05:47;101067.81;;;16.08;53.67
28344;BME280;15597;50.914;6.638;2024-03-22T07:08:13;101078.31;;;16.09;53.55
28344;BME280;15597;50.914;6.638;2024-03-22T07:10:39;101069.47;;;16.10;53.64
28344;BME280;15597;50.914;6.638;2024-03-22T07:13:05;101066.84;;;16.10;53.52
28344;BME280;15597;50.914;6.638;2024-03-22T07:15:31;101066.03;;;16.08;53.52
28344;BME280;15597;50.914;6.638;2024-03-22T07:17:58;101061.78;;;16.04;53.55
28344;BME280;15597;50.914;6.638;2024-03-22T07:20:24;101060.19;;;16.00;53.65
28344;BME280;15597;50.914;6.638;2024-03-22T07:22:50;101065.47;;;16.00;53.70
28344;BME280;15597;50.914;6.638;2024-03-22T07:25:15;101056.63;;;16.01;53.74
28344;BME280;15597;50.914;6.638;2024-03-22T07:27:41;101058.25;;;16.05;53.68
28344;BME280;15597;50.914;6.638;2024-03-22T07:30:07;101064.25;;;16.09;53.46
28344;BME280;15597;50.914;6.638;2024-03-22T07:32:32;101063.41;;;16.08;53.43
28344;BME280;15597;50.914;6.638;2024-03-22T07:34:58;101060.88;;;16.05;53.34
28344;BME280;15597;50.914;6.638;2024-03-22T07:37:24;101058.28;;;16.03;53.47
28344;BME280;15597;50.914;6.638;2024-03-22T07:39:49;101055.63;;;16.03;53.69
28344;BME280;15597;50.914;6.638;2024-03-22T07:42:16;101060.81;;;16.06;53.45
28344;BME280;15597;50.914;6.638;2024-03-22T07:44:42;101058.97;;;16.09;53.49
28344;BME280;15597;50.914;6.638;2024-03-22T07:47:08;101056.28;;;16.10;53.57
28344;BME280;15597;50.914;6.638;2024-03-22T07:49:33;101059.72;;;16.12;53.36
28344;BME280;15597;50.914;6.638;2024-03-22T07:52:02;101050.00;;;16.13;53.38
28344;BME280;15597;50.914;6.638;2024-03-22T07:54:28;101038.50;;;16.15;53.46
28344;BME280;15597;50.914;6.638;2024-03-22T07:56:53;101039.28;;;16.17;53.44
28344;BME280;15597;50.914;6.638;2024-03-22T07:59:19;101040.94;;;16.20;53.51
28344;BME280;15597;50.914;6.638;2024-03-22T08:01:44;101037.38;;;16.21;53.44
28344;BME280;15597;50.914;6.638;2024-03-22T08:04:10;101038.16;;;16.25;53.55
28344;BME280;15597;50.914;6.638;2024-03-22T08:06:36;101035.44;;;16.26;53.73
28344;BME280;15597;50.914;6.638;2024-03-22T08:09:01;101039.88;;;16.26;53.57
28344;BME280;15597;50.914;6.638;2024-03-22T08:11:28;101040.81;;;16.23;53.54
28344;BME280;15597;50.914;6.638;2024-03-22T08:13:54;101039.91;;;16.24;53.68
28344;BME280;15597;50.914;6.638;2024-03-22T08:16:28;101043.31;;;16.28;53.63
28344;BME280;15597;50.914;6.638;2024-03-22T08:18:53;101039.66;;;16.30;53.77
28344;BME280;15597;50.914;6.638;2024-03-22T08:21:19;101038.63;;;16.34;53.40
28344;BME280;15597;50.914;6.638;2024-03-22T08:23:45;101039.38;;;16.38;53.60
28344;BME280;15597;50.914;6.638;2024-03-22T08:26:11;101041.13;;;16.39;53.72
28344;BME280;15597;50.914;6.638;2024-03-22T08:28:36;101040.06;;;16.43;53.65
28344;BME280;15597;50.914;6.638;2024-03-22T08:31:06;101038.19;;;16.47;53.56
28344;BME280;15597;50.914;6.638;2024-03-22T08:33:32;101034.50;;;16.51;53.33
28344;BME280;15597;50.914;6.638;2024-03-22T08:35:57;101024.66;;;16.55;53.33
28344;BME280;15597;50.914;6.638;2024-03-22T08:38:23;101026.25;;;16.59;53.28
28344;BME280;15597;50.914;6.638;2024-03-22T08:40:50;101022.69;;;16.60;53.23
28344;BME280;15597;50.914;6.638;2024-03-22T08:43:15;101020.00;;;16.61;53.05
28344;BME280;15597;50.914;6.638;2024-03-22T08:45:41;101018.03;;;16.67;53.31
28344;BME280;15597;50.914;6.638;2024-03-22T08:48:07;101020.47;;;16.71;53.23
28344;BME280;15597;50.914;6.638;2024-03-22T08:50:33;101022.16;;;16.74;52.90
28344;BME280;15597;50.914;6.638;2024-03-22T08:52:59;101014.94;;;16.77;53.11
28344;BME280;15597;50.914;6.638;2024-03-22T08:55:28;101016.53;;;16.82;53.08
28344;BME280;15597;50.914;6.638;2024-03-22T08:57:55;101016.41;;;16.85;53.02
28344;BME280;15597;50.914;6.638;2024-03-22T09:00:20;101022.56;;;16.85;52.87
28344;BME280;15597;50.914;6.638;2024-03-22T09:02:46;101026.13;;;16.84;53.05
28344;BME280;15597;50.914;6.638;2024-03-22T09:05:12;101020.72;;;16.87;52.91
28344;BME280;15597;50.914;6.638;2024-03-22T09:07:39;101017.06;;;16.90;52.60
28344;BME280;15597;50.914;6.638;2024-03-22T09:10:06;101014.44;;;16.90;52.75
28344;BME280;15597;50.914;6.638;2024-03-22T09:12:32;101013.47;;;16.92;52.81
28344;BME280;15597;50.914;6.638;2024-03-22T09:14:57;101007.19;;;16.95;52.56
28344;BME280;15597;50.914;6.638;2024-03-22T09:17:23;100999.97;;;17.00;52.59
28344;BME280;15597;50.914;6.638;2024-03-22T09:19:48;101005.19;;;17.02;52.72
28344;BME280;15597;50.914;6.638;2024-03-22T09:22:14;101003.28;;;17.05;52.62
28344;BME280;15597;50.914;6.638;2024-03-22T09:24:40;101001.31;;;17.11;52.67
28344;BME280;15597;50.914;6.638;2024-03-22T09:27:06;101004.63;;;17.16;52.54
28344;BME280;15597;50.914;6.638;2024-03-22T09:29:38;101006.06;;;17.23;52.24
28344;BME280;15597;50.914;6.638;2024-03-22T09:32:04;100995.22;;;17.29;51.96
28344;BME280;15597;50.914;6.638;2024-03-22T09:34:30;100993.50;;;17.28;52.01
28344;BME280;15597;50.914;6.638;2024-03-22T09:36:57;100995.22;;;17.29;52.06
28344;BME280;15597;50.914;6.638;2024-03-22T09:39:23;100999.50;;;17.32;52.16
28344;BME280;15597;50.914;6.638;2024-03-22T09:41:50;100986.22;;;17.33;52.01
28344;BME280;15597;50.914;6.638;2024-03-22T09:44:18;100984.38;;;17.35;52.00
28344;BME280;15597;50.914;6.638;2024-03-22T09:46:46;100982.38;;;17.41;51.97
28344;BME280;15597;50.914;6.638;2024-03-22T09:49:12;100976.97;;;17.44;51.82
28344;BME280;15597;50.914;6.638;2024-03-22T09:51:41;100983.09;;;17.44;51.77
28344;BME280;15597;50.914;6.638;2024-03-22T09:54:09;100975.91;;;17.48;51.75
28344;BME280;15597;50.914;6.638;2024-03-22T09:56:35;100974.97;;;17.49;51.50
28344;BME280;15597;50.914;6.638;2024-03-22T09:59:03;100980.25;;;17.49;51.80
28344;BME280;15597;50.914;6.638;2024-03-22T10:01:29;100980.25;;;17.49;51.55
28344;BME280;15597;50.914;6.638;2024-03-22T10:03:55;100979.47;;;17.47;51.40
28344;BME280;15597;50.914;6.638;2024-03-22T10:06:21;100973.25;;;17.48;51.65
28344;BME280;15597;50.914;6.638;2024-03-22T10:08:47;100968.25;;;17.42;51.66
28344;BME280;15597;50.914;6.638;2024-03-22T10:11:13;100969.16;;;17.41;51.76
28344;BME280;15597;50.914;6.638;2024-03-22T10:13:38;100962.06;;;17.41;51.53
28344;BME280;15597;50.914;6.638;2024-03-22T10:16:05;100955.81;;;17.44;51.62
28344;BME280;15597;50.914;6.638;2024-03-22T10:18:33;100953.94;;;17.46;51.63
28344;BME280;15597;50.914;6.638;2024-03-22T10:21:00;100950.22;;;17.50;51.40
28344;BME280;15597;50.914;6.638;2024-03-22T10:23:26;100957.97;;;17.55;51.52
28344;BME280;15597;50.914;6.638;2024-03-22T10:25:52;100964.25;;;17.52;51.43
28344;BME280;15597;50.914;6.638;2024-03-22T10:28:17;100959.09;;;17.49;51.67
28344;BME280;15597;50.914;6.638;2024-03-22T10:30:43;100957.53;;;17.45;51.67
28344;BME280;15597;50.914;6.638;2024-03-22T10:33:10;100959.22;;;17.46;51.90
28344;BME280;15597;50.914;6.638;2024-03-22T10:35:36;100946.72;;;17.49;51.71
28344;BME280;15597;50.914;6.638;2024-03-22T10:38:02;100949.31;;;17.51;51.83
28344;BME280;15597;50.914;6.638;2024-03-22T10:40:29;100935.94;;;17.54;51.65
28344;BME280;15597;50.914;6.638;2024-03-22T10:42:55;100929.56;;;17.58;51.48
28344;BME280;15597;50.914;6.638;2024-03-22T10:45:23;100938.94;;;17.65;51.29
28344;BME280;15597;50.914;6.638;2024-03-22T10:47:51;100934.22;;;17.53;51.70
28344;BME280;15597;50.914;6.638;2024-03-22T10:50:22;100919.78;;;17.60;51.54
28344;BME280;15597;50.914;6.638;2024-03-22T10:52:56;100932.09;;;17.61;51.40
28344;BME280;15597;50.914;6.638;2024-03-22T10:55:33;100920.50;;;17.64;51.26
28344;BME280;15597;50.914;6.638;2024-03-22T10:57:59;100915.78;;;17.71;51.46
28344;BME280;15597;50.914;6.638;2024-03-22T11:00:32;100916.81;;;17.68;51.25
28344;BME280;15597;50.914;6.638;2024-03-22T11:02:59;100917.34;;;17.75;51.20
28344;BME280;15597;50.914;6.638;2024-03-22T11:05:26;100917.34;;;17.75;51.26
28344;BME280;15597;50.914;6.638;2024-03-22T11:08:03;100914.78;;;17.73;51.17
28344;BME280;15597;50.914;6.638;2024-03-22T11:10:33;100903.91;;;17.79;51.07
28344;BME280;15597;50.914;6.638;2024-03-22T11:13:07;100906.56;;;17.79;51.27
28344;BME280;15597;50.914;6.638;2024-03-22T11:15:34;100906.34;;;17.84;51.17
28344;BME280;15597;50.914;6.638;2024-03-22T11:18:00;100905.34;;;17.87;51.28
28344;BME280;15597;50.914;6.638;2024-03-22T11:20:27;100902.63;;;17.88;50.97
28344;BME280;15597;50.914;6.638;2024-03-22T11:22:53;100896.25;;;17.92;51.09
28344;BME280;15597;50.914;6.638;2024-03-22T11:25:19;100891.72;;;17.94;51.11
28344;BME280;15597;50.914;6.638;2024-03-22T11:27:46;100888.16;;;17.95;51.00
28344;BME280;15597;50.914;6.638;2024-03-22T11:30:12;100889.72;;;18.00;51.00
28344;BME280;15597;50.914;6.638;2024-03-22T11:32:39;100881.69;;;18.03;51.07
28344;BME280;15597;50.914;6.638;2024-03-22T11:35:10;100871.00;;;18.04;50.90
28344;BME280;15597;50.914;6.638;2024-03-22T11:37:40;100871.00;;;18.04;51.00
28344;BME280;15597;50.914;6.638;2024-03-22T11:40:09;100863.06;;;18.04;51.05
28344;BME280;15597;50.914;6.638;2024-03-22T11:42:41;100866.34;;;18.09;50.82
28344;BME280;15597;50.914;6.638;2024-03-22T11:45:09;100867.13;;;18.12;50.87
28344;BME280;15597;50.914;6.638;2024-03-22T11:47:36;100867.91;;;18.14;51.00
28344;BME280;15597;50.914;6.638;2024-03-22T11:50:02;100872.53;;;18.10;50.84
28344;BME280;15597;50.914;6.638;2024-03-22T11:52:28;100869.94;;;18.08;51.07
28344;BME280;15597;50.914;6.638;2024-03-22T11:54:54;100862.72;;;18.12;50.88
28344;BME280;15597;50.914;6.638;2024-03-22T11:57:21;100859.13;;;18.13;51.04
28344;BME280;15597;50.914;6.638;2024-03-22T11:59:47;100851.81;;;18.18;51.02
28344;BME280;15597;50.914;6.638;2024-03-22T12:02:13;100857.13;;;18.18;50.99
28344;BME280;15597;50.914;6.638;2024-03-22T12:04:45;100859.13;;;18.13;50.93
28344;BME280;15597;50.914;6.638;2024-03-22T12:07:17;100843.25;;;18.13;51.02
28344;BME280;15597;50.914;6.638;2024-03-22T12:09:44;100848.38;;;18.16;50.96
28344;BME280;15597;50.914;6.638;2024-03-22T12:12:12;100839.50;;;18.17;50.85
28344;BME280;15597;50.914;6.638;2024-03-22T12:14:38;100832.34;;;18.19;50.82
28344;BME280;15597;50.914;6.638;2024-03-22T12:17:05;100830.31;;;18.24;50.61
28344;BME280;15597;50.914;6.638;2024-03-22T12:19:30;100832.81;;;18.28;50.26
28344;BME280;15597;50.914;6.638;2024-03-22T12:21:56;100833.59;;;18.30;50.09
28344;BME280;15597;50.914;6.638;2024-03-22T12:24:23;100832.66;;;18.31;50.27
28344;BME280;15597;50.914;6.638;2024-03-22T12:26:49;100835.31;;;18.31;50.19
28344;BME280;15597;50.914;6.638;2024-03-22T12:29:17;100831.00;;;18.28;50.11
28344;BME280;15597;50.914;6.638;2024-03-22T12:31:44;100825.66;;;18.30;49.96
28344;BME280;15597;50.914;6.638;2024-03-22T12:34:10;100822.22;;;18.28;49.96
28344;BME280;15597;50.914;6.638;2024-03-22T12:36:36;100824.00;;;18.27;50.15
28344;BME280;15597;50.914;6.638;2024-03-22T12:39:01;100808.03;;;18.29;50.10
28344;BME280;15597;50.914;6.638;2024-03-22T12:41:28;100808.81;;;18.31;50.20
28344;BME280;15597;50.914;6.638;2024-03-22T12:43:55;100806.97;;;18.33;49.89